Time;durP1;ratioP1;P1;durP2;ratioP2;P2;SDS_P1;SDS_P2;PMS_P1;PMS_P2;Temp;Humidity;BMP_temperature;BMP_pressure;BME280_temperature;BME280_humidity;BME280_pressure;Samples;Min_cycle;Max_cycle;Signal;HPM_P1;HPM_P2
2022/06/18 00:00:21;;;;;;;1.88;0.70;;;;;;;;;;4994559;28;20054;-68
2022/06/18 00:02:52;;;;;;;1.17;0.70;;;;;;;;;;4971467;28;20054;-69
2022/06/18 00:05:25;;;;;;;0.98;0.57;;;;;;;;;;4956135;28;20050;-68
2022/06/18 00:07:56;;;;;;;3.50;0.65;;;;;;;;;;4971353;28;20073;-69
2022/06/18 00:10:30;;;;;;;1.55;0.70;;;;;;;;;;4940041;28;20070;-68
2022/06/18 00:16:16;;;;;;;1.42;0.77;;;;;;;;;;4935995;28;20554;-69
2022/06/18 00:18:47;;;;;;;1.73;0.75;;;;;;;;;;4952095;28;20066;-69
2022/06/18 00:21:20;;;;;;;1.27;0.80;;;;;;;;;;4950161;28;20051;-68
2022/06/18 00:23:50;;;;;;;;;;;;;;;;;;4952650;28;20059;-68
2022/06/18 00:26:20;;;;;;;1.55;0.88;;;;;;;;;;4935962;28;20369;-69
2022/06/18 00:28:50;;;;;;;2.17;0.80;;;;;;;;;;4971133;28;20061;-68
2022/06/18 00:31:20;;;;;;;1.30;0.60;;;;;;;;;;4955279;28;20070;-69
2022/06/18 00:33:51;;;;;;;1.75;1.00;;;;;;;;;;4955535;28;20395;-69
2022/06/18 00:36:22;;;;;;;2.15;1.13;;;;;;;;;;4975664;28;20058;-70
2022/06/18 00:38:54;;;;;;;1.58;0.80;;;;;;;;;;5009947;28;20046;-69
2022/06/18 00:41:26;;;;;;;2.25;1.13;;;;;;;;;;4944234;28;20058;-70
2022/06/18 00:44:05;;;;;;;3.53;1.00;;;;;;;;;;4958460;28;20051;-70
2022/06/18 00:46:44;;;;;;;4.93;1.00;;;;;;;;;;4990440;28;20069;-70
2022/06/18 00:49:58;;;;;;;2.60;1.83;;;;;;;;;;4990554;28;20077;-69
2022/06/18 00:52:39;;;;;;;2.55;1.15;;;;;;;;;;4951065;28;20098;-69
2022/06/18 00:55:22;;;;;;;3.17;1.58;;;;;;;;;;4931947;29;20066;-67
2022/06/18 00:58:07;;;;;;;3.95;1.85;;;;;;;;;;4933987;29;20104;-66
2022/06/18 01:00:45;;;;;;;3.22;1.52;;;;;;;;;;4932068;29;20056;-69
2022/06/18 01:03:24;;;;;;;3.42;1.63;;;;;;;;;;4932221;29;20056;-67
2022/06/18 01:06:02;;;;;;;5.25;1.58;;;;;;;;;;4903128;29;20062;-67
2022/06/18 01:08:33;;;;;;;4.75;2.10;;;;;;;;;;4932112;29;20052;-67
2022/06/18 01:11:17;;;;;;;3.58;1.63;;;;;;;;;;4932406;29;20059;-67
2022/06/18 01:13:48;;;;;;;5.65;2.17;;;;;;;;;;4881464;29;20374;-67
2022/06/18 01:16:21;;;;;;;3.30;1.83;;;;;;;;;;4893942;29;20089;-68
2022/06/18 01:18:53;;;;;;;6.45;2.97;;;;;;;;;;4894109;29;20429;-69
2022/06/18 01:21:30;;;;;;;6.35;2.53;;;;;;;;;;4877620;29;20056;-68
2022/06/18 01:24:16;;;;;;;6.05;2.72;;;;;;;;;;4862934;29;20053;-68
2022/06/18 01:26:50;;;;;;;4.28;2.45;;;;;;;;;;4883136;29;20053;-68
2022/06/18 01:29:21;;;;;;;7.72;2.55;;;;;;;;;;4893829;29;20060;-68
2022/06/18 01:31:52;;;;;;;6.45;2.22;;;;;;;;;;4905073;29;20432;-69
2022/06/18 01:34:23;;;;;;;4.70;2.50;;;;;;;;;;4890159;29;20053;-68
2022/06/18 01:37:00;;;;;;;5.47;2.55;;;;;;;;;;4867527;29;20050;-68
2022/06/18 01:39:36;;;;;;;5.60;2.33;;;;;;;;;;4874914;29;20053;-69
2022/06/18 01:42:12;;;;;;;5.43;2.35;;;;;;;;;;4856120;29;20060;-67
2022/06/18 01:45:03;;;;;;;5.93;2.67;;;;;;;;;;4856682;29;20061;-69
2022/06/18 01:48:23;;;;;;;5.63;2.95;;;;;;;;;;4856385;29;20045;-69
2022/06/18 01:51:21;;;;;;;6.38;2.42;;;;;;;;;;4851135;29;20062;-68
2022/06/18 01:54:02;;;;;;;7.28;3.00;;;;;;;;;;4847954;29;20057;-68
2022/06/18 01:56:43;;;;;;;7.43;3.20;;;;;;;;;;4804516;29;20386;-69
2022/06/18 01:59:27;;;;;;;5.75;2.50;;;;;;;;;;4834111;29;20078;-69
2022/06/18 02:02:03;;;;;;;6.97;3.28;;;;;;;;;;4856250;29;20099;-69
2022/06/18 02:04:34;;;;;;;;;;;;;;;;;;4841617;29;20058;-68
2022/06/18 02:07:08;;;;;;;5.25;2.63;;;;;;;;;;4897787;29;19923;-68
2022/06/18 02:10:06;;;;;;;7.30;2.90;;;;;;;;;;4916407;29;20512;-69
2022/06/18 02:12:40;;;;;;;8.15;2.88;;;;;;;;;;4859422;29;20072;-68
2022/06/18 02:15:27;;;;;;;8.07;3.05;;;;;;;;;;4869531;29;20057;-69
2022/06/18 02:18:02;;;;;;;5.35;2.47;;;;;;;;;;4844847;29;20058;-69
2022/06/18 02:20:36;;;;;;;5.80;2.60;;;;;;;;;;4855886;29;20064;-68
2022/06/18 02:23:08;;;;;;;5.40;2.90;;;;;;;;;;4893975;29;20060;-68
2022/06/18 02:25:44;;;;;;;6.45;2.85;;;;;;;;;;4893728;29;20045;-70
2022/06/18 02:28:29;;;;;;;9.00;3.28;;;;;;;;;;4896718;29;20057;-69
2022/06/18 02:31:02;;;;;;;6.72;3.78;;;;;;;;;;4901596;29;20052;-70
2022/06/18 02:33:53;;;;;;;8.43;3.08;;;;;;;;;;4896273;29;20061;-70
2022/06/18 02:36:31;;;;;;;5.05;2.35;;;;;;;;;;4920493;29;20054;-71
2022/06/18 02:39:22;;;;;;;4.95;2.60;;;;;;;;;;4934917;29;20741;-71
2022/06/18 02:42:01;;;;;;;6.30;2.50;;;;;;;;;;4934850;29;20055;-71
2022/06/18 02:44:33;;;;;;;6.18;3.03;;;;;;;;;;4934602;29;20051;-71
2022/06/18 02:47:08;;;;;;;5.53;2.72;;;;;;;;;;4887928;29;20055;-71
2022/06/18 02:49:46;;;;;;;6.60;2.67;;;;;;;;;;4962354;28;20061;-71
2022/06/18 02:52:17;;;;;;;4.97;2.67;;;;;;;;;;4996694;28;20060;-71
2022/06/18 02:54:48;;;;;;;7.07;3.20;;;;;;;;;;5011870;28;20065;-71
2022/06/18 02:57:26;;;;;;;7.38;2.92;;;;;;;;;;4963481;28;20057;-70
2022/06/18 02:59:56;;;;;;;;;;;;;;;;;;5012442;28;20057;-71
2022/06/18 03:02:26;;;;;;;6.40;2.72;;;;;;;;;;5012065;28;19921;-71
2022/06/18 03:04:57;;;;;;;4.90;2.55;;;;;;;;;;5011749;28;20069;-71
2022/06/18 03:07:27;;;;;;;6.75;2.67;;;;;;;;;;4979494;28;20438;-70
2022/06/18 03:12:46;;;;;;;6.63;2.83;;;;;;;;;;5031524;28;20146;-71
2022/06/18 03:15:16;;;;;;;6.65;3.13;;;;;;;;;;5050769;28;20060;-71
2022/06/18 03:17:47;;;;;;;6.35;3.05;;;;;;;;;;5011202;28;20061;-71
2022/06/18 03:20:20;;;;;;;6.40;3.08;;;;;;;;;;4978777;28;20062;-72
2022/06/18 03:22:51;;;;;;;6.07;2.95;;;;;;;;;;5011542;28;20525;-71
2022/06/18 03:25:22;;;;;;;4.70;2.45;;;;;;;;;;5011299;28;20046;-72
2022/06/18 03:27:53;;;;;;;6.18;2.85;;;;;;;;;;4995410;28;20054;-71
2022/06/18 03:30:23;;;;;;;6.85;3.10;;;;;;;;;;5005705;28;20631;-70
2022/06/18 03:32:54;;;;;;;7.47;3.03;;;;;;;;;;5014863;28;20045;-73
2022/06/18 03:35:24;;;;;;;6.03;3.10;;;;;;;;;;4958915;28;20058;-72
2022/06/18 03:37:55;;;;;;;6.75;3.35;;;;;;;;;;4991236;28;20054;-72
2022/06/18 03:40:25;;;;;;;6.45;2.75;;;;;;;;;;4920473;29;20059;-72
2022/06/18 03:42:55;;;;;;;6.53;3.22;;;;;;;;;;4952494;28;20055;-72
2022/06/18 03:45:28;;;;;;;6.28;3.30;;;;;;;;;;4952544;28;20081;-72
2022/06/18 03:47:59;;;;;;;7.18;3.33;;;;;;;;;;4952319;28;20051;-71
2022/06/18 03:50:29;;;;;;;6.53;3.10;;;;;;;;;;4933105;29;20056;-72
2022/06/18 03:53:00;;;;;;;7.60;3.20;;;;;;;;;;4933255;29;20051;-71
2022/06/18 03:55:32;;;;;;;7.50;3.10;;;;;;;;;;4951878;28;20122;-71
2022/06/18 03:58:04;;;;;;;9.43;3.42;;;;;;;;;;4952616;29;20071;-72
2022/06/18 04:00:35;;;;;;;7.45;2.88;;;;;;;;;;4954937;28;20054;-72
2022/06/18 04:03:06;;;;;;;7.57;3.13;;;;;;;;;;4960798;28;20124;-72
2022/06/18 04:05:40;;;;;;;5.95;3.15;;;;;;;;;;4951596;28;20058;-71
2022/06/18 04:08:14;;;;;;;9.00;3.15;;;;;;;;;;4952379;28;20059;-72
2022/06/18 04:10:52;;;;;;;7.78;3.70;;;;;;;;;;4950545;28;20402;-72
2022/06/18 04:13:22;;;;;;;6.35;3.20;;;;;;;;;;5002102;28;20055;-71
2022/06/18 04:16:02;;;;;;;6.70;3.15;;;;;;;;;;5050098;28;20420;-71
2022/06/18 04:18:35;;;;;;;7.40;3.47;;;;;;;;;;5033633;28;20056;-72
2022/06/18 04:21:07;;;;;;;8.35;3.13;;;;;;;;;;5011940;28;20497;-71
2022/06/18 04:23:41;;;;;;;8.65;3.10;;;;;;;;;;5009983;28;20046;-71
2022/06/18 04:26:12;;;;;;;5.60;2.97;;;;;;;;;;4980640;28;20068;-70
2022/06/18 04:28:47;;;;;;;8.48;3.10;;;;;;;;;;4969994;28;20608;-71
2022/06/18 04:31:19;;;;;;;6.75;3.15;;;;;;;;;;4917157;29;20047;-72
2022/06/18 04:33:51;;;;;;;6.45;3.17;;;;;;;;;;4913173;29;20059;-71
2022/06/18 04:36:43;;;;;;;6.38;3.05;;;;;;;;;;4932972;29;20052;-71
2022/06/18 04:39:34;;;;;;;6.80;3.08;;;;;;;;;;4895010;29;20048;-72
2022/06/18 04:42:22;;;;;;;6.82;3.28;;;;;;;;;;4932319;29;20056;-71
2022/06/18 04:44:55;;;;;;;6.30;2.85;;;;;;;;;;4932431;28;20059;-72
2022/06/18 04:47:55;;;;;;;7.15;2.88;;;;;;;;;;4913284;29;20059;-71
2022/06/18 04:50:30;;;;;;;7.05;3.22;;;;;;;;;;4875544;29;20052;-70
2022/06/18 04:53:01;;;;;;;6.18;2.83;;;;;;;;;;4875852;29;20057;-70
2022/06/18 04:55:33;;;;;;;6.40;3.17;;;;;;;;;;4885973;29;20065;-71
2022/06/18 04:58:04;;;;;;;8.52;3.03;;;;;;;;;;4856750;29;20053;-71
2022/06/18 05:00:35;;;;;;;6.80;3.00;;;;;;;;;;4871678;29;20064;-72
2022/06/18 05:03:29;;;;;;;10.30;3.15;;;;;;;;;;4863196;29;20057;-71
2022/06/18 05:06:03;;;;;;;6.35;3.40;;;;;;;;;;4881508;29;20067;-71
2022/06/18 05:08:40;;;;;;;6.65;3.47;;;;;;;;;;4869090;29;20101;-72
2022/06/18 05:11:13;;;;;;;7.20;3.30;;;;;;;;;;4916239;29;20058;-71
2022/06/18 05:14:14;;;;;;;6.97;3.50;;;;;;;;;;4938973;29;20055;-71
2022/06/18 05:16:52;;;;;;;6.38;3.00;;;;;;;;;;4951506;29;20539;-71
2022/06/18 05:19:25;;;;;;;9.10;3.30;;;;;;;;;;4915571;29;20059;-72
2022/06/18 05:21:59;;;;;;;7.25;3.83;;;;;;;;;;4907742;29;20063;-69
2022/06/18 05:24:31;;;;;;;6.45;2.95;;;;;;;;;;4912450;29;20052;-71
2022/06/18 05:27:18;;;;;;;8.32;3.58;;;;;;;;;;4870908;29;20053;-71
2022/06/18 05:29:49;;;;;;;6.65;2.95;;;;;;;;;;4838257;29;20054;-71
2022/06/18 05:32:20;;;;;;;6.78;3.17;;;;;;;;;;4893126;29;20068;-70
2022/06/18 05:34:51;;;;;;;7.65;3.17;;;;;;;;;;4896595;29;20536;-71
2022/06/18 05:37:24;;;;;;;9.18;4.18;;;;;;;;;;4912449;29;20063;-73
2022/06/18 05:39:55;;;;;;;9.38;3.95;;;;;;;;;;4859385;29;20525;-71
2022/06/18 05:42:25;;;;;;;8.05;3.90;;;;;;;;;;4860410;29;20060;-70
2022/06/18 05:44:57;;;;;;;9.50;4.50;;;;;;;;;;4841600;29;20061;-71
2022/06/18 05:47:33;;;;;;;7.35;3.55;;;;;;;;;;4841901;29;20423;-71
2022/06/18 05:50:06;;;;;;;7.75;3.90;;;;;;;;;;4845441;29;20061;-71
2022/06/18 05:52:39;;;;;;;9.27;4.55;;;;;;;;;;4841661;29;20415;-71
2022/06/18 05:55:22;;;;;;;6.72;3.17;;;;;;;;;;4860178;29;20050;-70
2022/06/18 05:58:03;;;;;;;9.77;4.45;;;;;;;;;;4860190;29;20053;-71
2022/06/18 06:00:43;;;;;;;7.00;3.17;;;;;;;;;;4860547;29;20057;-71
2022/06/18 06:03:14;;;;;;;12.88;4.75;;;;;;;;;;4894586;29;20048;-71
2022/06/18 06:05:44;;;;;;;10.30;4.38;;;;;;;;;;4911036;29;20239;-70
2022/06/18 06:08:16;;;;;;;9.18;4.00;;;;;;;;;;4897253;29;20094;-71
2022/06/18 06:13:38;;;;;;;9.60;4.03;;;;;;;;;;4916230;29;20460;-70
2022/06/18 06:16:11;;;;;;;9.85;3.50;;;;;;;;;;4899481;29;20052;-70
2022/06/18 06:18:41;;;;;;;12.55;4.25;;;;;;;;;;4902931;29;20059;-70
2022/06/18 06:21:11;;;;;;;10.63;3.65;;;;;;;;;;4934943;29;20063;-70
2022/06/18 06:23:41;;;;;;;10.15;3.90;;;;;;;;;;4916711;29;20067;-70
2022/06/18 06:26:32;;;;;;;11.70;3.78;;;;;;;;;;4941180;29;20203;-71
2022/06/18 06:29:03;;;;;;;11.77;4.00;;;;;;;;;;4938768;29;20618;-71
2022/06/18 06:31:33;;;;;;;11.35;4.88;;;;;;;;;;4973180;28;20066;-71
2022/06/18 06:34:04;;;;;;;9.73;3.80;;;;;;;;;;4957352;28;20058;-71
2022/06/18 06:36:34;;;;;;;10.77;4.55;;;;;;;;;;4973359;28;20066;-70
2022/06/18 06:39:05;;;;;;;10.60;3.78;;;;;;;;;;4973306;28;20525;-71
2022/06/18 06:41:35;;;;;;;10.57;3.85;;;;;;;;;;4956857;28;20195;-70
2022/06/18 06:44:05;;;;;;;9.48;3.58;;;;;;;;;;4957229;28;20439;-70
2022/06/18 06:46:37;;;;;;;9.55;4.25;;;;;;;;;;4971704;28;20054;-70
2022/06/18 06:49:08;;;;;;;9.95;3.45;;;;;;;;;;5012457;28;20054;-70
2022/06/18 06:51:39;;;;;;;8.85;3.50;;;;;;;;;;4991253;28;20418;-70
2022/06/18 06:54:09;;;;;;;11.32;3.60;;;;;;;;;;4997852;28;20560;-70
2022/06/18 06:59:28;;;;;;;8.27;3.63;;;;;;;;;;4943964;28;20596;-69
2022/06/18 07:01:58;;;;;;;10.48;3.17;;;;;;;;;;4987448;28;20541;-70
2022/06/18 07:04:29;;;;;;;7.85;3.20;;;;;;;;;;5007042;28;20065;-70
2022/06/18 07:06:59;;;;;;;7.90;2.92;;;;;;;;;;4995142;28;20058;-70
2022/06/18 07:09:30;;;;;;;10.50;3.63;;;;;;;;;;4972563;28;20095;-70
2022/06/18 07:12:00;;;;;;;12.73;3.20;;;;;;;;;;4956442;28;20553;-70
2022/06/18 07:14:30;;;;;;;8.93;2.88;;;;;;;;;;4972630;28;20062;-70
2022/06/18 07:17:00;;;;;;;7.70;3.08;;;;;;;;;;4972570;28;20110;-70
2022/06/18 07:19:31;;;;;;;8.30;3.38;;;;;;;;;;4972670;28;20479;-70
2022/06/18 07:22:02;;;;;;;8.15;3.17;;;;;;;;;;4972242;28;20055;-70
2022/06/18 07:24:32;;;;;;;12.43;3.55;;;;;;;;;;4924832;28;20046;-69
2022/06/18 07:27:03;;;;;;;13.55;3.15;;;;;;;;;;4972381;28;20062;-70
2022/06/18 07:29:34;;;;;;;7.93;3.22;;;;;;;;;;4967670;28;20054;-70
2022/06/18 07:32:11;;;;;;;7.78;3.17;;;;;;;;;;5003221;28;20080;-70
2022/06/18 07:34:44;;;;;;;11.52;3.38;;;;;;;;;;4988521;28;20049;-70
2022/06/18 07:37:14;;;;;;;7.45;2.78;;;;;;;;;;5017726;28;20155;-70
2022/06/18 07:39:45;;;;;;;12.07;3.35;;;;;;;;;;5050938;28;20044;-70
2022/06/18 07:42:19;;;;;;;8.20;2.90;;;;;;;;;;5034349;28;20060;-68
2022/06/18 07:44:50;;;;;;;8.40;2.97;;;;;;;;;;5034756;28;20049;-68
2022/06/18 07:47:20;;;;;;;12.77;3.75;;;;;;;;;;5075469;28;20059;-70
2022/06/18 07:49:51;;;;;;;8.98;3.17;;;;;;;;;;5057747;28;20056;-70
2022/06/18 07:52:21;;;;;;;9.27;3.08;;;;;;;;;;5093087;28;20403;-70
2022/06/18 07:54:51;;;;;;;6.45;2.30;;;;;;;;;;5093318;28;20048;-69
2022/06/18 07:57:25;;;;;;;7.97;2.92;;;;;;;;;;5093078;28;20402;-69
2022/06/18 07:59:55;;;;;;;8.52;3.17;;;;;;;;;;5093097;28;20471;-69
2022/06/18 08:02:26;;;;;;;7.95;3.28;;;;;;;;;;5091732;28;20036;-69
2022/06/18 08:04:56;;;;;;;10.10;3.40;;;;;;;;;;5057638;28;20048;-69
2022/06/18 08:07:27;;;;;;;10.85;4.03;;;;;;;;;;5092745;28;20411;-69
2022/06/18 08:09:58;;;;;;;8.45;2.95;;;;;;;;;;5092856;28;20044;-69
2022/06/18 08:12:28;;;;;;;11.30;3.17;;;;;;;;;;5092888;28;20055;-68
2022/06/18 08:15:01;;;;;;;11.07;3.78;;;;;;;;;;5074518;28;20620;-70
2022/06/18 08:17:31;;;;;;;7.45;3.38;;;;;;;;;;5092632;28;20391;-69
2022/06/18 08:20:01;;;;;;;6.97;3.13;;;;;;;;;;5057132;28;20415;-69
2022/06/18 08:22:33;;;;;;;8.15;2.80;;;;;;;;;;5091388;28;20048;-68
2022/06/18 08:25:04;;;;;;;11.88;3.67;;;;;;;;;;5092531;28;20040;-70
2022/06/18 08:27:35;;;;;;;8.27;2.80;;;;;;;;;;5091345;28;20044;-69
2022/06/18 08:30:07;;;;;;;6.85;3.08;;;;;;;;;;5092471;28;20044;-69
2022/06/18 08:32:37;;;;;;;8.40;3.35;;;;;;;;;;5092513;28;20051;-69
2022/06/18 08:35:08;;;;;;;9.80;3.20;;;;;;;;;;5069547;28;20052;-70
2022/06/18 08:37:38;;;;;;;8.77;2.80;;;;;;;;;;5036285;28;20416;-67
2022/06/18 08:40:44;;;;;;;7.95;3.28;;;;;;;;;;5069903;28;20464;-70
2022/06/18 08:43:29;;;;;;;10.00;3.40;;;;;;;;;;5009944;28;20049;-70
2022/06/18 08:46:26;;;;;;;10.02;2.60;;;;;;;;;;4977642;28;20053;-69
2022/06/18 08:49:17;;;;;;;9.10;3.20;;;;;;;;;;5009830;28;20054;-69
2022/06/18 08:52:17;;;;;;;7.32;3.15;;;;;;;;;;5009863;28;20053;-70
2022/06/18 08:55:28;;;;;;;7.50;2.70;;;;;;;;;;4989794;28;20050;-70
2022/06/18 08:58:06;;;;;;;7.88;2.92;;;;;;;;;;4932052;29;20421;-69
2022/06/18 09:01:05;;;;;;;9.85;2.92;;;;;;;;;;4894229;29;20060;-69
2022/06/18 09:03:52;;;;;;;7.72;3.08;;;;;;;;;;4893482;29;20540;-69
2022/06/18 09:06:25;;;;;;;13.45;3.15;;;;;;;;;;4894124;29;20060;-68
2022/06/18 09:09:12;;;;;;;7.32;3.15;;;;;;;;;;4894552;29;20556;-68
2022/06/18 09:11:48;;;;;;;7.93;2.85;;;;;;;;;;4895434;29;20056;-68
2022/06/18 09:14:33;;;;;;;7.57;3.38;;;;;;;;;;4913005;29;20464;-68
2022/06/18 09:17:12;;;;;;;9.38;3.30;;;;;;;;;;4913167;29;20055;-68
2022/06/18 09:19:46;;;;;;;8.90;3.42;;;;;;;;;;4925638;28;20058;-68
2022/06/18 09:22:20;;;;;;;10.65;3.35;;;;;;;;;;4938418;28;20051;-69
2022/06/18 09:24:59;;;;;;;8.63;3.38;;;;;;;;;;4970383;28;20063;-68
2022/06/18 09:27:42;;;;;;;9.02;2.78;;;;;;;;;;4954880;28;20055;-68
2022/06/18 09:30:40;;;;;;;11.07;4.28;;;;;;;;;;4970537;28;20061;-68
2022/06/18 09:33:20;;;;;;;14.32;6.25;;;;;;;;;;4915465;29;20070;-68
2022/06/18 09:36:26;;;;;;;13.68;5.63;;;;;;;;;;4986899;28;20577;-68
2022/06/18 09:39:07;;;;;;;15.90;6.75;;;;;;;;;;4957111;28;20054;-68
2022/06/18 09:41:52;;;;;;;13.82;6.28;;;;;;;;;;4989691;28;20422;-68
2022/06/18 09:44:25;;;;;;;15.82;5.85;;;;;;;;;;4989546;28;20046;-68
2022/06/18 09:47:05;;;;;;;15.75;6.07;;;;;;;;;;4989639;28;20453;-68
2022/06/18 09:49:35;;;;;;;15.48;5.63;;;;;;;;;;4973354;28;20430;-68
2022/06/18 09:52:32;;;;;;;9.57;3.88;;;;;;;;;;4989673;28;20061;-69
2022/06/18 09:55:12;;;;;;;11.77;4.13;;;;;;;;;;4989708;28;20061;-68
2022/06/18 09:57:49;;;;;;;8.45;3.78;;;;;;;;;;4989296;28;20077;-68
2022/06/18 10:00:32;;;;;;;8.55;3.50;;;;;;;;;;4973193;28;20058;-68
2022/06/18 10:03:11;;;;;;;10.32;4.25;;;;;;;;;;4941176;28;20066;-68
2022/06/18 10:08:40;;;;;;;12.60;5.63;;;;;;;;;;4989471;28;20541;-68
2022/06/18 10:11:13;;;;;;;20.15;8.43;;;;;;;;;;5027447;28;20410;-67
2022/06/18 10:14:10;;;;;;;21.33;9.30;;;;;;;;;;5012649;28;20046;-68
2022/06/18 10:17:17;;;;;;;23.13;10.35;;;;;;;;;;5085226;28;20055;-68
2022/06/18 10:20:10;;;;;;;27.65;10.02;;;;;;;;;;5091576;28;20036;-68
2022/06/18 10:23:13;;;;;;;29.55;10.88;;;;;;;;;;5090892;28;20048;-68
2022/06/18 10:25:53;;;;;;;20.00;8.23;;;;;;;;;;5092071;28;20036;-69
2022/06/18 10:28:43;;;;;;;16.80;7.30;;;;;;;;;;5094941;28;20036;-69
2022/06/18 10:31:52;;;;;;;18.45;7.57;;;;;;;;;;5092044;28;20040;-67
2022/06/18 10:34:40;;;;;;;20.33;7.70;;;;;;;;;;5051858;28;20064;-67
2022/06/18 10:37:22;;;;;;;18.67;7.70;;;;;;;;;;5052030;28;20465;-69
2022/06/18 10:40:19;;;;;;;19.45;8.15;;;;;;;;;;5031947;28;20058;-67
2022/06/18 10:42:58;;;;;;;22.23;8.40;;;;;;;;;;5031958;28;20069;-68
2022/06/18 10:45:47;;;;;;;20.95;8.43;;;;;;;;;;5031934;28;20053;-68
2022/06/18 10:48:30;;;;;;;17.13;6.95;;;;;;;;;;5032040;28;20057;-68
2022/06/18 10:51:02;;;;;;;14.57;6.82;;;;;;;;;;5031516;28;20053;-68
2022/06/18 10:54:00;;;;;;;18.90;5.97;;;;;;;;;;5011893;28;20046;-67
2022/06/18 10:56:52;;;;;;;16.70;5.75;;;;;;;;;;4980564;28;20409;-67
2022/06/18 10:59:51;;;;;;;17.98;6.82;;;;;;;;;;5011875;28;20553;-67
2022/06/18 11:02:33;;;;;;;13.90;5.65;;;;;;;;;;4953502;29;20059;-67
2022/06/18 11:05:29;;;;;;;16.40;6.47;;;;;;;;;;4952978;29;20538;-67
2022/06/18 11:08:02;;;;;;;14.60;5.63;;;;;;;;;;4940156;28;20074;-68
2022/06/18 11:10:33;;;;;;;16.17;6.40;;;;;;;;;;4981180;28;20077;-68
2022/06/18 11:13:06;;;;;;;16.95;7.65;;;;;;;;;;4992002;28;20066;-67
2022/06/18 11:15:38;;;;;;;21.52;9.00;;;;;;;;;;4992122;28;20410;-68
2022/06/18 11:18:19;;;;;;;16.65;7.53;;;;;;;;;;4996499;28;20057;-68
2022/06/18 11:21:05;;;;;;;19.73;7.40;;;;;;;;;;5011574;28;20066;-68
2022/06/18 11:23:37;;;;;;;17.75;7.00;;;;;;;;;;4972064;28;20105;-68
2022/06/18 11:26:29;;;;;;;15.88;6.45;;;;;;;;;;4959430;28;20518;-69
2022/06/18 11:29:07;;;;;;;14.60;5.93;;;;;;;;;;4972417;28;20062;-69
2022/06/18 11:31:45;;;;;;;12.70;5.30;;;;;;;;;;4972006;28;20066;-69
2022/06/18 11:34:35;;;;;;;14.73;6.15;;;;;;;;;;4956661;28;20058;-69
2022/06/18 11:37:22;;;;;;;14.38;6.07;;;;;;;;;;4933187;29;20052;-69
2022/06/18 11:40:09;;;;;;;14.38;6.53;;;;;;;;;;4988902;28;20387;-69
2022/06/18 11:42:52;;;;;;;17.88;7.85;;;;;;;;;;4994858;28;20053;-70
2022/06/18 11:45:35;;;;;;;20.75;5.85;;;;;;;;;;5011047;28;20065;-70
2022/06/18 11:48:14;;;;;;;14.32;6.15;;;;;;;;;;4977787;28;20057;-69
2022/06/18 11:50:55;;;;;;;11.27;4.82;;;;;;;;;;4978069;28;20046;-70
2022/06/18 11:53:37;;;;;;;12.00;5.38;;;;;;;;;;5010720;28;20058;-70
2022/06/18 11:56:18;;;;;;;11.55;4.88;;;;;;;;;;5010793;28;20054;-70
2022/06/18 11:58:56;;;;;;;13.40;5.30;;;;;;;;;;5011071;28;20046;-70
2022/06/18 12:01:40;;;;;;;16.55;6.55;;;;;;;;;;5010490;28;20442;-70
2022/06/18 12:04:26;;;;;;;16.27;5.90;;;;;;;;;;5009069;28;20053;-70
2022/06/18 12:07:20;;;;;;;16.30;6.28;;;;;;;;;;4993999;28;20057;-70
2022/06/18 12:09:52;;;;;;;15.73;5.18;;;;;;;;;;4990953;28;20414;-69
2022/06/18 12:12:34;;;;;;;9.32;5.07;;;;;;;;;;4991208;28;20430;-70
2022/06/18 12:15:16;;;;;;;14.13;5.47;;;;;;;;;;4978336;28;20057;-69
2022/06/18 12:17:57;;;;;;;10.65;4.50;;;;;;;;;;4958240;28;20046;-69
2022/06/18 12:20:47;;;;;;;10.98;4.55;;;;;;;;;;4968943;28;20059;-70
2022/06/18 12:23:39;;;;;;;10.13;3.92;;;;;;;;;;4951815;29;20055;-70
2022/06/18 12:26:27;;;;;;;10.48;3.95;;;;;;;;;;4937417;29;20063;-69
2022/06/18 12:29:16;;;;;;;8.57;3.20;;;;;;;;;;4951976;29;20066;-69
2022/06/18 12:32:13;;;;;;;10.13;3.63;;;;;;;;;;4951750;29;20066;-69
2022/06/18 12:34:59;;;;;;;10.30;4.28;;;;;;;;;;4900919;29;20207;-69
2022/06/18 12:38:14;;;;;;;12.32;5.47;;;;;;;;;;4894869;29;20524;-69
2022/06/18 12:41:09;;;;;;;10.10;5.18;;;;;;;;;;4860102;29;20065;-70
2022/06/18 12:44:01;;;;;;;6.85;2.95;;;;;;;;;;4875979;29;20057;-69
2022/06/18 12:46:54;;;;;;;13.30;4.30;;;;;;;;;;4846946;29;20414;-70
2022/06/18 12:49:51;;;;;;;8.75;3.40;;;;;;;;;;4838273;29;20438;-69
2022/06/18 12:52:27;;;;;;;8.38;3.45;;;;;;;;;;4784390;30;20055;-69
2022/06/18 12:55:25;;;;;;;8.52;3.90;;;;;;;;;;4775586;30;20457;-69
2022/06/18 12:58:19;;;;;;;29.27;11.10;;;;;;;;;;4773961;30;20432;-68
2022/06/18 13:00:59;;;;;;;14.95;5.85;;;;;;;;;;4783982;30;20484;-69
2022/06/18 13:03:39;;;;;;;12.18;6.18;;;;;;;;;;4769539;30;20627;-69
2022/06/18 13:06:26;;;;;;;6.90;2.90;;;;;;;;;;4784050;30;20144;-69
2022/06/18 13:09:08;;;;;;;24.58;12.43;;;;;;;;;;4784388;30;20428;-70
2022/06/18 13:12:10;;;;;;;5.18;2.45;;;;;;;;;;4787899;29;20051;-69
2022/06/18 13:15:02;;;;;;;4.70;1.83;;;;;;;;;;4802200;29;20063;-67
2022/06/18 13:17:42;;;;;;;5.82;2.00;;;;;;;;;;4796560;29;20066;-67
2022/06/18 13:20:31;;;;;;;4.68;2.00;;;;;;;;;;4784428;30;20055;-66
2022/06/18 13:28:10;;;;;;;4.05;1.70;;;;;;;;;;4785232;29;20055;-68
2022/06/18 13:29:08;;;;;;;5.25;2.10;;;;;;;;;;4905969;28;20414;-69
2022/06/18 13:32:06;;;;;;;6.05;1.95;;;;;;;;;;5012425;28;20073;-69
2022/06/18 13:35:04;;;;;;;4.60;2.17;;;;;;;;;;5048971;28;20501;-69
2022/06/18 13:37:43;;;;;;;5.03;2.03;;;;;;;;;;5028978;28;20575;-69
2022/06/18 13:40:33;;;;;;;5.95;2.05;;;;;;;;;;5029216;28;20048;-68
2022/06/18 13:43:15;;;;;;;4.00;1.88;;;;;;;;;;5009164;28;20050;-70
2022/06/18 13:46:01;;;;;;;5.30;1.92;;;;;;;;;;5009362;28;20576;-69
2022/06/18 13:48:53;;;;;;;6.88;2.15;;;;;;;;;;4960806;28;20065;-68
2022/06/18 13:51:28;;;;;;;;;;;;;;;;;;5009578;28;20054;-69
2022/06/18 13:54:15;;;;;;;6.25;2.22;;;;;;;;;;5009254;28;20332;-68
2022/06/18 13:57:03;;;;;;;5.88;2.10;;;;;;;;;;4976935;28;20065;-69
2022/06/18 13:59:34;;;;;;;7.00;2.72;;;;;;;;;;4993863;28;20088;-71
2022/06/18 14:02:25;;;;;;;4.85;1.98;;;;;;;;;;4973756;28;20057;-70
2022/06/18 14:05:19;;;;;;;5.55;2.10;;;;;;;;;;4973731;28;20063;-70
2022/06/18 14:07:52;;;;;;;6.75;2.00;;;;;;;;;;4943374;28;20074;-71
2022/06/18 14:10:26;;;;;;;5.60;2.10;;;;;;;;;;4913826;28;20498;-71
2022/06/18 14:13:10;;;;;;;5.53;2.17;;;;;;;;;;4944942;28;20050;-70
2022/06/18 14:16:02;;;;;;;6.15;2.50;;;;;;;;;;4995182;28;20432;-70
2022/06/18 14:18:33;;;;;;;6.68;3.05;;;;;;;;;;5012534;28;20057;-71
2022/06/18 14:21:10;;;;;;;8.02;1.88;;;;;;;;;;5025810;28;20054;-69
2022/06/18 14:23:43;;;;;;;9.38;3.10;;;;;;;;;;4979673;28;20053;-71
2022/06/18 14:26:19;;;;;;;5.50;2.50;;;;;;;;;;5012730;28;20092;-72
2022/06/18 14:28:52;;;;;;;7.82;2.10;;;;;;;;;;4996300;28;20050;-71
2022/06/18 14:31:47;;;;;;;8.90;2.47;;;;;;;;;;4980052;28;20054;-71
2022/06/18 14:34:49;;;;;;;5.10;2.10;;;;;;;;;;5012649;28;20415;-70
2022/06/18 14:37:20;;;;;;;9.27;1.98;;;;;;;;;;5012228;28;20497;-72
2022/06/18 14:39:59;;;;;;;4.93;1.95;;;;;;;;;;4990313;28;20417;-73
2022/06/18 14:43:04;;;;;;;6.82;2.85;;;;;;;;;;4954716;28;20465;-72
2022/06/18 14:45:37;;;;;;;7.25;2.35;;;;;;;;;;5032057;28;20045;-70
2022/06/18 14:48:24;;;;;;;8.32;3.00;;;;;;;;;;5031955;28;20054;-73
2022/06/18 14:51:18;;;;;;;8.18;3.13;;;;;;;;;;5015484;28;21048;-73
2022/06/18 14:54:19;;;;;;;6.22;2.50;;;;;;;;;;5015880;28;20563;-70
2022/06/18 14:57:17;;;;;;;8.18;2.55;;;;;;;;;;5031786;28;20069;-72
2022/06/18 14:59:57;;;;;;;5.13;2.10;;;;;;;;;;5014931;28;20532;-72
2022/06/18 15:02:37;;;;;;;7.85;2.47;;;;;;;;;;5090120;28;20056;-72
2022/06/18 15:05:26;;;;;;;8.85;4.53;;;;;;;;;;5091661;28;20985;-73
2022/06/18 15:08:19;;;;;;;6.53;2.85;;;;;;;;;;5091759;28;20052;-71
2022/06/18 15:10:54;;;;;;;6.63;2.70;;;;;;;;;;5074855;28;20048;-71
2022/06/18 15:13:25;;;;;;;7.53;2.95;;;;;;;;;;5091220;28;20515;-71
2022/06/18 15:18:36;;;;;;;5.97;2.50;;;;;;;;;;5058386;28;20060;-69
2022/06/18 15:21:21;;;;;;;4.93;2.30;;;;;;;;;;5094023;28;20040;-71
2022/06/18 15:24:00;;;;;;;5.60;2.92;;;;;;;;;;5093878;28;20398;-72
2022/06/18 15:26:37;;;;;;;6.85;3.05;;;;;;;;;;5076810;28;20407;-72
2022/06/18 15:29:18;;;;;;;7.65;2.95;;;;;;;;;;5093677;28;20048;-70
2022/06/18 15:32:14;;;;;;;7.00;2.67;;;;;;;;;;5092528;28;20491;-70
2022/06/18 15:34:48;;;;;;;11.85;4.82;;;;;;;;;;5093588;28;20048;-72
2022/06/18 15:37:22;;;;;;;6.00;3.40;;;;;;;;;;5091523;28;20411;-71
2022/06/18 15:40:05;;;;;;;7.28;2.97;;;;;;;;;;5058193;28;20071;-72
2022/06/18 15:42:40;;;;;;;7.00;3.05;;;;;;;;;;5091561;28;20488;-69
2022/06/18 15:45:24;;;;;;;9.10;3.22;;;;;;;;;;5090964;28;20066;-71
2022/06/18 15:47:58;;;;;;;7.10;3.38;;;;;;;;;;5091149;28;20060;-70
2022/06/18 15:50:33;;;;;;;7.30;3.22;;;;;;;;;;5091029;28;20523;-71
2022/06/18 15:53:03;;;;;;;9.00;3.58;;;;;;;;;;5091001;28;20048;-71
2022/06/18 15:55:45;;;;;;;9.20;3.47;;;;;;;;;;5090827;28;20056;-71
2022/06/18 15:58:16;;;;;;;7.75;3.35;;;;;;;;;;5090673;28;20428;-71
2022/06/18 16:00:47;;;;;;;6.88;3.30;;;;;;;;;;5030596;28;20061;-71
2022/06/18 16:03:21;;;;;;;8.63;3.42;;;;;;;;;;5030784;28;20505;-71
2022/06/18 16:05:53;;;;;;;11.15;3.60;;;;;;;;;;4997086;28;20623;-72
2022/06/18 16:08:46;;;;;;;9.07;3.92;;;;;;;;;;5030433;28;20046;-70
2022/06/18 16:11:25;;;;;;;6.57;3.35;;;;;;;;;;5030703;28;20544;-70